Time;durP1;ratioP1;P1;durP2;ratioP2;P2;SDS_P1;SDS_P2;PMS_P1;PMS_P2;Temp;Humidity;BMP_temperature;BMP_pressure;BME280_temperature;BME280_humidity;BME280_pressure;Samples;Min_cycle;Max_cycle;Signal;HPM_P1;HPM_P2
2023/11/23 07:27:23;;;;;;;0.20;0.20;;;;;;;19.59;64.72;75971.84;6259766;22;20030;-94
2023/11/23 07:29:52;;;;;;;0.20;0.20;;;;;;;20.07;61.70;76028.34;6277432;22;20093;-93
2023/11/23 07:34:52;;;;;;;0.20;0.20;;;;;;;20.35;59.77;76067.63;6273115;22;20023;-90
2023/11/23 07:37:57;;;;;;;0.20;0.20;;;;;;;20.40;59.27;76076.44;6249174;22;20042;-94
2023/11/23 07:40:23;;;;;;;0.20;0.20;;;;;;;19.80;60.50;75997.06;6275080;22;20015;-92
2023/11/23 12:13:14;;;;;;;0.20;0.20;;;;;;;19.07;63.13;75916.16;6249732;23;20100;-93
2023/11/23 12:15:40;;;;;;;0.20;0.20;;;;;;;19.20;61.58;75926.16;6246017;23;20008;-93
2023/11/23 12:18:06;;;;;;;0.20;0.20;;;;;;;19.16;60.45;75926.34;6218968;23;20004;-92
2023/11/23 12:20:36;;;;;;;0.20;0.20;;;;;;;19.47;59.37;75960.81;6224370;23;20349;-92
2023/11/23 12:23:05;;;;;;;0.20;0.20;;;;;;;19.57;59.44;75977.84;6220377;23;20004;-93
2023/11/23 12:25:34;;;;;;;0.20;0.20;;;;;;;19.57;59.01;75966.63;6224327;23;20000;-93
2023/11/23 12:28:08;;;;;;;0.20;0.20;;;;;;;19.38;58.56;75950.59;6260546;23;20024;-92
2023/11/23 12:30:33;;;;;;;0.20;0.20;;;;;;;20.06;56.25;76029.94;6232902;23;20007;-92
2023/11/23 12:32:59;;;;;;;0.20;0.20;;;;;;;19.98;56.27;76015.31;6220781;23;20083;-92
2023/11/23 12:35:24;;;;;;;0.20;0.20;;;;;;;19.79;57.04;76000.91;6246937;23;20059;-92
2023/11/23 12:37:54;;;;;;;0.20;0.20;;;;;;;19.57;57.78;75972.81;6219658;23;20103;-92
2023/11/23 13:15:25;;;;;;;0.20;0.20;;;;;;;18.73;59.46;75876.50;6243809;22;20058;-92
2023/11/23 13:33:24;;;;;;;0.20;0.20;;;;;;;18.86;60.49;75891.53;6278878;22;20165;-90
2023/11/23 13:39:02;;;;;;;0.20;0.20;;;;;;;18.97;58.10;75904.16;6283722;22;20023;-88
2023/11/23 13:41:28;;;;;;;0.20;0.20;;;;;;;18.76;57.94;75873.91;6249714;22;20016;-94
2023/11/23 13:43:57;;;;;;;0.20;0.20;;;;;;;19.25;57.57;75931.56;6276344;22;20004;-94
2023/11/23 13:46:24;;;;;;;0.20;0.20;;;;;;;18.95;58.23;75899.53;6249954;22;20004;-93
2023/11/23 13:54:37;;;;;;;0.20;0.20;;;;;;;18.30;59.83;75823.25;6245533;22;20463;-92
2023/11/23 13:57:08;;;;;;;0.20;0.20;;;;;;;18.67;59.72;75866.47;6243979;23;20024;-95
2023/11/23 13:59:33;;;;;;;0.20;0.20;;;;;;;18.48;59.04;75843.66;6218774;23;20130;-96
2023/11/23 14:02:00;;;;;;;0.20;0.20;;;;;;;18.24;59.05;75815.44;6243585;23;20476;-93
2023/11/23 14:04:26;;;;;;;0.20;0.20;;;;;;;18.49;58.55;75847.66;6218631;23;20332;-95
2023/11/23 14:06:51;;;;;;;0.20;0.20;;;;;;;18.43;58.72;75838.25;6244637;23;20087;-95
2023/11/23 16:01:21;;;;;;;0.20;0.20;;;;;;;15.72;75.64;75524.63;6244292;22;20031;-93
2023/11/23 16:03:47;;;;;;;0.20;0.20;;;;;;;15.71;76.66;75521.25;6244782;23;20012;-95
2023/11/23 16:23:54;;;;;;;0.20;0.20;;;;;;;15.52;79.37;75498.44;6276124;22;20062;-94
2023/11/23 16:29:19;;;;;;;0.20;0.20;;;;;;;15.42;79.62;75483.66;6273858;22;20062;-95
2023/11/23 16:31:45;;;;;;;0.20;0.20;;;;;;;15.18;80.24;75461.66;6271498;22;20032;-94
2023/11/23 16:34:13;;;;;;;0.20;0.20;;;;;;;15.22;81.19;75460.28;6220772;22;20007;-95
2023/11/23 16:58:44;;;;;;;0.20;0.20;;;;;;;15.07;80.97;75453.44;6281916;22;20401;-90
2023/11/23 17:03:56;;;;;;;0.20;0.20;;;;;;;15.04;82.15;75444.88;6279343;22;20023;-95
2023/11/23 17:06:22;;;;;;;0.20;0.20;;;;;;;14.99;80.91;75436.09;6224012;22;20087;-96
2023/11/23 17:08:48;;;;;;;0.20;0.20;;;;;;;14.97;81.25;75430.31;6249328;22;20004;-95
2023/11/23 17:11:16;;;;;;;0.20;0.20;;;;;;;14.89;81.88;75426.91;6249228;22;20007;-95
2023/11/23 17:13:45;;;;;;;0.20;0.20;;;;;;;14.95;80.18;75434.09;6249179;22;20004;-92
2023/11/23 17:16:11;;;;;;;0.20;0.20;;;;;;;15.00;80.05;75433.91;6250144;22;20045;-95
2023/11/23 17:18:37;;;;;;;0.20;0.20;;;;;;;14.97;79.96;75436.50;6248207;22;20000;-93
2023/11/23 17:21:02;;;;;;;0.20;0.20;;;;;;;14.93;81.02;75432.31;6245401;22;20501;-94
2023/11/23 17:23:30;;;;;;;0.20;0.20;;;;;;;14.93;81.42;75426.72;6245015;22;20090;-96
2023/11/23 17:25:56;;;;;;;0.20;0.20;;;;;;;14.89;81.55;75426.91;6245717;22;20003;-92
2023/11/23 17:28:23;;;;;;;0.20;0.20;;;;;;;14.96;81.47;75435.28;6245402;22;20014;-91
2023/11/23 17:30:50;;;;;;;0.20;0.20;;;;;;;14.89;82.04;75426.91;6245368;22;20434;-94
2023/11/23 17:33:19;;;;;;;0.20;0.20;;;;;;;14.79;81.79;75409.34;6272784;22;20007;-93
2023/11/23 17:41:16;;;;;;;0.20;0.20;;;;;;;14.47;82.73;75377.16;6271739;22;20101;-93
2023/11/23 17:49:24;;;;;;;0.30;0.30;;;;;;;14.57;82.58;75389.16;6273970;22;20020;-94
2023/11/23 17:51:52;;;;;;;0.20;0.20;;;;;;;14.47;83.97;75379.94;6271152;22;20015;-95
2023/11/23 17:54:18;;;;;;;0.20;0.20;;;;;;;14.43;84.71;75375.75;6246985;22;20474;-95
2023/11/23 18:02:17;;;;;;;0.20;0.20;;;;;;;14.46;85.00;75375.97;6274153;22;20027;-95
2023/11/23 18:04:44;;;;;;;0.20;0.20;;;;;;;14.45;84.81;75374.78;6273502;22;20037;-96
2023/11/23 18:07:10;;;;;;;0.20;0.20;;;;;;;14.50;84.99;75375.81;6230191;23;20016;-93
2023/11/23 18:09:36;;;;;;;0.20;0.20;;;;;;;14.29;85.00;75354.03;6217219;23;20460;-94
2023/11/23 18:12:03;;;;;;;0.20;0.20;;;;;;;14.40;84.36;75366.59;6217436;23;20069;-96
2023/11/23 18:14:30;;;;;;;0.20;0.20;;;;;;;14.51;84.45;75384.75;6217162;23;20008;-95
2023/11/23 18:16:56;;;;;;;0.20;0.20;;;;;;;14.48;84.52;75378.97;6217503;23;20000;-94
2023/11/23 18:19:22;;;;;;;0.20;0.20;;;;;;;14.17;85.42;75336.88;6216395;23;20012;-93
2023/11/23 18:21:47;;;;;;;0.20;0.20;;;;;;;14.31;86.47;75359.19;6216675;23;20008;-94
2023/11/23 18:24:14;;;;;;;0.20;0.20;;;;;;;14.37;86.98;75363.00;6216497;23;20008;-94
2023/11/23 18:26:39;;;;;;;0.20;0.20;;;;;;;14.26;86.47;75347.03;6218839;23;20437;-93
2023/11/23 18:29:06;;;;;;;0.20;0.20;;;;;;;14.28;87.07;75358.38;6218996;23;20012;-94
2023/11/23 18:31:38;;;;;;;0.20;0.20;;;;;;;14.37;85.65;75363.00;6217237;23;20004;-90
2023/11/23 18:53:44;;;;;;;0.20;0.20;;;;;;;14.29;83.89;75356.81;6281293;22;20038;-94
2023/11/23 18:56:10;;;;;;;0.20;0.20;;;;;;;14.26;83.81;75352.59;6246741;22;20012;-94
2023/11/23 18:58:36;;;;;;;0.20;0.20;;;;;;;14.31;83.95;75358.59;6247034;22;20057;-94
2023/11/23 19:01:04;;;;;;;0.30;0.30;;;;;;;14.24;83.27;75348.03;6247873;22;20011;-93
2023/11/23 19:03:32;;;;;;;0.20;0.20;;;;;;;14.38;84.33;75364.19;6247284;22;20000;-94
